createdAt,value
2023-03-05T00:01:45.186Z,57.83
2023-03-05T00:04:16.508Z,62.90
2023-03-05T00:06:44.998Z,63.67
2023-03-05T00:09:13.419Z,62.27
2023-03-05T00:11:44.925Z,58.33
2023-03-05T00:14:13.469Z,60.47
2023-03-05T00:16:43.439Z,65.20
2023-03-05T00:19:12.128Z,60.80
2023-03-05T00:21:41.881Z,60.00
2023-03-05T00:24:12.747Z,64.33
2023-03-05T00:26:41.802Z,62.80
2023-03-05T00:29:11.042Z,62.43
2023-03-05T00:31:39.963Z,63.60
2023-03-05T00:34:11.083Z,67.83
2023-03-05T00:36:41.415Z,65.10
2023-03-05T00:39:09.904Z,66.67
2023-03-05T00:41:38.311Z,71.23
2023-03-05T00:44:07.150Z,65.40
2023-03-05T00:46:35.759Z,70.07
2023-03-05T00:49:04.268Z,63.50
2023-03-05T00:51:34.300Z,63.07
2023-03-05T00:54:03.649Z,69.77
2023-03-05T00:56:32.070Z,61.63
2023-03-05T00:59:00.655Z,64.47
2023-03-05T01:01:29.272Z,65.00
2023-03-05T01:03:59.585Z,66.00
2023-03-05T01:06:30.204Z,68.87
2023-03-05T01:09:00.325Z,71.10
2023-03-05T01:11:29.245Z,65.83
2023-03-05T01:13:58.893Z,68.50
2023-03-05T01:16:27.652Z,64.40
2023-03-05T01:18:56.152Z,70.00
2023-03-05T01:21:24.667Z,65.83
2023-03-05T01:23:53.327Z,67.80
2023-03-05T01:26:23.372Z,75.17
2023-03-05T01:28:51.793Z,68.40
2023-03-05T01:31:20.414Z,65.83
2023-03-05T01:33:49.436Z,63.93
2023-03-05T01:36:18.000Z,60.43
2023-03-05T01:38:47.119Z,63.00
2023-03-05T01:41:17.130Z,64.03
2023-03-05T01:43:47.171Z,62.87
2023-03-05T01:46:27.110Z,62.23
2023-03-05T01:48:58.197Z,63.20
2023-03-05T01:51:28.760Z,66.03
2023-03-05T01:53:59.888Z,69.87
2023-03-05T01:56:29.362Z,63.80
2023-03-05T01:59:03.495Z,65.30
2023-03-05T02:01:34.005Z,61.83
2023-03-05T02:04:03.127Z,68.00
2023-03-05T02:06:31.660Z,67.53
2023-03-05T02:09:01.150Z,63.13
2023-03-05T02:11:29.604Z,63.67
2023-03-05T02:13:59.892Z,64.60
2023-03-05T02:16:35.681Z,66.50
2023-03-05T02:19:05.151Z,63.33
2023-03-05T02:21:39.923Z,65.73
2023-03-05T02:24:08.680Z,60.73
2023-03-05T02:26:37.101Z,64.40
2023-03-05T02:29:07.245Z,69.90
2023-03-05T02:31:35.734Z,69.20
2023-03-05T02:34:04.180Z,71.00
2023-03-05T02:36:32.550Z,71.00
2023-03-05T02:39:02.654Z,64.90
2023-03-05T02:41:31.409Z,61.00
2023-03-05T02:44:00.575Z,67.60
2023-03-05T02:46:28.936Z,67.50
2023-03-05T02:48:57.477Z,66.60
2023-03-05T02:51:25.855Z,66.57
2023-03-05T02:53:54.896Z,70.07
2023-03-05T02:56:27.049Z,67.37
2023-03-05T02:58:55.690Z,69.07
2023-03-05T03:01:24.230Z,68.67
2023-03-05T03:03:52.656Z,66.33
2023-03-05T03:06:21.041Z,63.50
2023-03-05T03:08:52.916Z,70.13
2023-03-05T03:11:21.572Z,69.37
2023-03-05T03:13:51.304Z,64.53
2023-03-05T03:16:19.947Z,67.00
2023-03-05T03:18:48.982Z,60.93
2023-03-05T03:21:21.589Z,62.37
2023-03-05T03:23:50.051Z,64.50
2023-03-05T03:26:18.614Z,62.97
2023-03-05T03:28:47.066Z,63.73
2023-03-05T03:31:17.351Z,61.20
2023-03-05T03:33:45.780Z,69.53
2023-03-05T03:36:14.207Z,64.97
2023-03-05T03:38:42.779Z,63.87
2023-03-05T03:41:11.454Z,58.70
2023-03-05T03:43:39.942Z,68.77
2023-03-05T03:46:08.953Z,62.63
2023-03-05T03:48:38.804Z,68.33
2023-03-05T03:51:07.962Z,71.73
2023-03-05T03:53:36.561Z,71.13
2023-03-05T03:56:05.331Z,68.40
2023-03-05T03:58:33.823Z,64.97
2023-03-05T04:01:02.270Z,67.43
2023-03-05T04:03:30.667Z,68.07
2023-03-05T04:06:00.388Z,53.67
2023-03-05T04:08:28.771Z,71.77
2023-03-05T04:10:57.368Z,72.43
2023-03-05T04:13:25.747Z,62.57
2023-03-05T04:15:54.822Z,65.10
2023-03-05T04:18:23.455Z,64.70
2023-03-05T04:20:51.989Z,63.50
2023-03-05T04:23:21.859Z,71.87
2023-03-05T04:25:50.279Z,62.73
2023-03-05T04:28:18.888Z,63.43
2023-03-05T04:30:47.727Z,57.67
2023-03-05T04:33:16.135Z,64.57
2023-03-05T04:35:44.648Z,67.23
2023-03-05T04:38:13.221Z,61.37
2023-03-05T04:40:43.446Z,64.37
2023-03-05T04:43:11.853Z,60.83
2023-03-05T04:45:41.404Z,67.77
2023-03-05T04:48:10.305Z,58.13
2023-03-05T04:50:38.805Z,64.53
2023-03-05T04:53:07.844Z,74.77
2023-03-05T04:55:36.200Z,58.30
2023-03-05T04:58:05.943Z,66.70
2023-03-05T05:00:34.340Z,61.43
2023-03-05T05:03:02.770Z,63.60
2023-03-05T05:05:31.289Z,61.73
2023-03-05T05:08:00.355Z,60.63
2023-03-05T05:10:28.697Z,63.53
2023-03-05T05:12:57.425Z,67.47
2023-03-05T05:15:27.193Z,58.07
2023-03-05T05:17:55.616Z,66.27
2023-03-05T05:20:24.074Z,71.77
2023-03-05T05:22:52.799Z,67.43
2023-03-05T05:25:21.148Z,69.13
2023-03-05T05:27:49.526Z,68.37
2023-03-05T05:30:18.169Z,63.90
2023-03-05T05:32:47.943Z,62.80
2023-03-05T05:35:16.293Z,58.93
2023-03-05T05:37:44.819Z,58.30
2023-03-05T05:40:13.681Z,64.13
2023-03-05T05:42:42.165Z,68.90
2023-03-05T05:45:11.521Z,63.50
2023-03-05T05:47:40.160Z,63.17
2023-03-05T05:50:10.620Z,67.27
2023-03-05T05:52:39.100Z,67.87
2023-03-05T05:55:08.110Z,65.70
2023-03-05T05:57:36.507Z,63.80
2023-03-05T06:00:07.199Z,70.13
2023-03-05T06:02:40.177Z,64.73
2023-03-05T06:05:12.364Z,65.67
2023-03-05T06:07:40.725Z,56.43
2023-03-05T06:10:10.214Z,57.77
2023-03-05T06:12:38.629Z,60.40
2023-03-05T06:15:07.626Z,64.10
2023-03-05T06:17:36.021Z,69.10
2023-03-05T06:20:05.043Z,65.13
2023-03-05T06:22:37.358Z,64.03
2023-03-05T06:25:05.819Z,75.00
2023-03-05T06:27:34.204Z,63.03
2023-03-05T06:30:02.680Z,65.13
2023-03-05T06:32:31.079Z,61.47
2023-03-05T06:34:59.567Z,70.07
2023-03-05T06:37:27.985Z,69.47
2023-03-05T06:39:57.716Z,72.50
2023-03-05T06:42:26.249Z,58.47
2023-03-05T06:44:54.582Z,55.60
2023-03-05T06:47:23.025Z,62.87
2023-03-05T06:49:51.451Z,61.17
2023-03-05T06:52:19.839Z,64.37
2023-03-05T06:54:48.211Z,61.87
2023-03-05T06:57:18.088Z,65.30
2023-03-05T06:59:49.282Z,66.37
2023-03-05T07:02:19.214Z,61.53
2023-03-05T07:04:47.716Z,61.17
2023-03-05T07:07:16.142Z,59.07
2023-03-05T07:09:50.329Z,60.73
2023-03-05T07:12:20.183Z,65.20
2023-03-05T07:14:48.534Z,60.60
2023-03-05T07:17:16.885Z,59.97
2023-03-05T07:19:45.302Z,61.70
2023-03-05T07:22:13.736Z,58.80
2023-03-05T07:24:42.157Z,59.77
2023-03-05T07:27:10.540Z,64.00
2023-03-05T07:29:40.287Z,60.03
2023-03-05T07:32:08.904Z,53.10
2023-03-05T07:34:38.909Z,57.63
2023-03-05T07:37:07.461Z,59.43
2023-03-05T07:39:35.815Z,59.47
2023-03-05T07:42:04.218Z,56.73
2023-03-05T07:44:50.679Z,58.67
2023-03-05T07:47:19.596Z,62.33
2023-03-05T07:49:48.023Z,63.70
2023-03-05T07:52:16.338Z,68.13
2023-03-05T07:54:44.946Z,56.77
2023-03-05T07:57:13.722Z,65.43
2023-03-05T07:59:43.180Z,64.33
2023-03-05T08:02:14.008Z,63.83
2023-03-05T08:04:43.342Z,59.97
2023-03-05T08:07:11.808Z,55.63
2023-03-05T08:09:40.354Z,58.77
2023-03-05T08:12:09.988Z,59.77
2023-03-05T08:14:38.522Z,55.53
2023-03-05T08:17:08.232Z,60.47
2023-03-05T08:19:37.989Z,60.37
2023-03-05T08:22:06.407Z,59.97
2023-03-05T08:24:34.793Z,59.13
2023-03-05T08:27:03.242Z,57.97
2023-03-05T08:29:31.703Z,55.00
2023-03-05T08:32:00.223Z,57.43
2023-03-05T08:34:28.852Z,53.87
2023-03-05T08:36:58.625Z,59.90
2023-03-05T08:39:27.024Z,56.13
2023-03-05T08:41:55.444Z,58.70
2023-03-05T08:44:23.865Z,60.40
2023-03-05T08:46:52.447Z,57.40
2023-03-05T08:49:21.025Z,56.93
2023-03-05T08:51:49.468Z,60.17
2023-03-05T08:54:19.213Z,54.83
2023-03-05T08:56:47.577Z,62.30
2023-03-05T08:59:16.009Z,58.60
2023-03-05T09:01:44.392Z,56.03
2023-03-05T09:04:12.854Z,58.00
2023-03-05T09:06:41.259Z,52.67
2023-03-05T09:09:10.613Z,58.07
2023-03-05T09:11:40.334Z,57.83
2023-03-05T09:14:09.251Z,61.70
2023-03-05T09:16:40.428Z,54.13
2023-03-05T09:19:10.720Z,55.67
2023-03-05T09:21:39.131Z,60.17
2023-03-05T09:24:07.806Z,58.07
2023-03-05T09:26:36.187Z,55.57
2023-03-05T09:29:07.623Z,65.93
2023-03-05T09:31:36.082Z,62.47
2023-03-05T09:34:04.543Z,65.80
2023-03-05T09:36:33.574Z,69.80
2023-03-05T09:39:02.283Z,58.73
2023-03-05T09:41:37.054Z,58.20
2023-03-05T09:44:20.060Z,57.33
2023-03-05T09:46:51.871Z,64.57
2023-03-05T09:49:22.996Z,61.00
2023-03-05T09:51:53.918Z,58.83
2023-03-05T09:54:25.033Z,65.23
2023-03-05T09:56:57.618Z,61.87
2023-03-05T09:59:32.266Z,58.73
2023-03-05T10:02:01.799Z,64.17
2023-03-05T10:04:39.818Z,63.07
2023-03-05T10:07:12.064Z,65.00
2023-03-05T10:09:45.813Z,64.00
2023-03-05T10:12:17.074Z,58.10
2023-03-05T10:14:46.923Z,59.70
2023-03-05T10:17:38.810Z,58.17
2023-03-05T10:20:24.960Z,60.80
2023-03-05T10:23:05.544Z,56.87
2023-03-05T10:25:41.262Z,58.10
2023-03-05T10:28:17.719Z,54.67
2023-03-05T10:30:55.132Z,60.50
2023-03-05T10:33:29.605Z,56.43
2023-03-05T10:36:16.959Z,60.00
2023-03-05T10:38:54.860Z,62.50
2023-03-05T10:41:28.720Z,59.57
2023-03-05T10:43:59.887Z,56.50
2023-03-05T10:46:33.130Z,56.33
2023-03-05T10:49:04.035Z,58.20
2023-03-05T10:51:35.273Z,57.73
2023-03-05T10:54:06.287Z,53.23
2023-03-05T10:56:35.050Z,50.90
2023-03-05T10:59:03.451Z,54.10
2023-03-05T11:01:33.212Z,57.70
2023-03-05T11:04:03.732Z,54.50
2023-03-05T11:06:34.095Z,53.87
2023-03-05T11:09:18.032Z,54.40
2023-03-05T11:11:46.939Z,55.23
2023-03-05T11:14:30.026Z,55.97
2023-03-05T11:16:59.843Z,53.93
2023-03-05T11:19:31.672Z,57.03
2023-03-05T11:22:14.630Z,53.83
2023-03-05T11:24:43.479Z,58.03
2023-03-05T11:27:24.520Z,53.47
2023-03-05T11:29:53.224Z,58.40
2023-03-05T11:32:26.825Z,56.37
2023-03-05T11:34:55.997Z,54.57
2023-03-05T11:37:26.141Z,49.43
2023-03-05T11:40:17.726Z,51.20
2023-03-05T11:42:46.328Z,53.97
2023-03-05T11:45:19.353Z,54.43
2023-03-05T11:47:50.608Z,56.43
2023-03-05T11:50:21.736Z,53.67
2023-03-05T11:52:51.155Z,54.37
2023-03-05T11:55:21.211Z,51.03
2023-03-05T11:57:52.150Z,50.33
2023-03-05T12:00:23.382Z,52.80
2023-03-05T12:02:54.834Z,49.73
2023-03-05T12:05:23.645Z,48.63
2023-03-05T12:07:53.453Z,49.60
2023-03-05T12:10:22.745Z,46.80
2023-03-05T12:12:53.487Z,46.47
2023-03-05T12:15:31.114Z,55.43
2023-03-05T12:18:06.739Z,50.70
2023-03-05T12:20:40.110Z,47.87
2023-03-05T12:23:12.853Z,49.87
2023-03-05T12:25:47.777Z,51.63
2023-03-05T12:28:17.886Z,47.63
2023-03-05T12:31:00.431Z,52.17
2023-03-05T12:33:34.950Z,45.33
2023-03-05T12:36:18.333Z,46.27
2023-03-05T12:38:47.733Z,43.20
2023-03-05T12:41:43.438Z,44.73
2023-03-05T12:44:19.080Z,45.70
2023-03-05T12:46:49.214Z,42.10
2023-03-05T12:49:31.687Z,52.20
2023-03-05T12:52:00.141Z,43.63
2023-03-05T12:54:33.569Z,47.63
2023-03-05T12:57:02.827Z,45.13
2023-03-05T12:59:34.504Z,44.60
2023-03-05T13:02:05.208Z,49.87
2023-03-05T13:04:36.013Z,41.60
2023-03-05T13:07:05.440Z,43.70
2023-03-05T13:09:36.351Z,41.30
2023-03-05T13:12:05.821Z,42.53
2023-03-05T13:14:36.564Z,41.37
2023-03-05T13:17:25.130Z,45.03
2023-03-05T13:19:54.911Z,37.87
2023-03-05T13:22:24.678Z,33.27
2023-03-05T13:25:05.439Z,34.57
2023-03-05T13:27:34.508Z,34.60
2023-03-05T13:30:02.897Z,39.07
2023-03-05T13:32:32.673Z,35.70
2023-03-05T13:35:03.151Z,36.73
2023-03-05T13:37:33.363Z,33.70
2023-03-05T13:40:04.944Z,31.13
2023-03-05T13:42:34.734Z,23.30
2023-03-05T13:45:04.411Z,20.10
2023-03-05T13:47:33.731Z,23.63
2023-03-05T13:50:05.727Z,25.10
2023-03-05T13:52:35.385Z,23.63
2023-03-05T13:55:04.503Z,22.60
2023-03-05T13:57:37.706Z,21.33
2023-03-05T14:00:07.584Z,25.73
2023-03-05T14:02:36.500Z,23.07
2023-03-05T14:05:15.488Z,27.30
2023-03-05T14:07:44.176Z,27.90
2023-03-05T14:10:28.956Z,23.73
2023-03-05T14:12:58.277Z,19.50
2023-03-05T14:15:28.387Z,24.47
2023-03-05T14:18:09.576Z,20.60
2023-03-05T14:20:39.790Z,21.23
2023-03-05T14:23:26.719Z,25.37
2023-03-05T14:26:12.840Z,24.30
2023-03-05T14:28:41.625Z,27.17
2023-03-05T14:31:15.248Z,22.17
2023-03-05T14:33:43.764Z,21.07
2023-03-05T14:36:14.106Z,20.80
2023-03-05T14:38:43.402Z,22.13
2023-03-05T14:41:22.603Z,22.90
2023-03-05T14:43:51.039Z,20.47
2023-03-05T14:46:19.926Z,23.97
2023-03-05T14:48:48.380Z,22.00
2023-03-05T14:51:18.499Z,19.63
2023-03-05T14:53:47.789Z,20.37
2023-03-05T14:56:19.683Z,22.93
2023-03-05T14:58:48.091Z,23.90
2023-03-05T15:01:17.105Z,24.53
2023-03-05T15:03:45.756Z,22.37
2023-03-05T15:06:22.908Z,19.23
2023-03-05T15:08:54.089Z,22.07
2023-03-05T15:11:23.248Z,18.47
2023-03-05T15:13:51.588Z,22.13
2023-03-05T15:16:20.676Z,21.33
2023-03-05T15:18:49.673Z,18.33
2023-03-05T15:21:19.562Z,25.23
2023-03-05T15:23:47.964Z,21.33
2023-03-05T15:26:17.055Z,22.37
2023-03-05T15:28:45.575Z,22.37
2023-03-05T15:31:14.046Z,21.17
2023-03-05T15:33:42.605Z,15.97
2023-03-05T15:36:11.368Z,17.57
2023-03-05T15:38:41.809Z,19.60
2023-03-05T15:41:10.310Z,19.97
2023-03-05T15:43:39.210Z,23.67
2023-03-05T15:46:08.184Z,22.43
2023-03-05T15:48:36.830Z,22.23
2023-03-05T15:51:07.674Z,23.63
2023-03-05T15:53:36.872Z,19.73
2023-03-05T15:56:06.996Z,20.27
2023-03-05T15:58:35.365Z,19.87
2023-03-05T16:01:03.732Z,21.33
2023-03-05T16:03:32.151Z,21.70
2023-03-05T16:06:00.588Z,20.10
2023-03-05T16:08:29.346Z,21.53
2023-03-05T16:10:57.903Z,22.03
2023-03-05T16:13:29.788Z,23.47
2023-03-05T16:15:58.972Z,21.63
2023-03-05T16:18:27.660Z,22.67
2023-03-05T16:20:56.659Z,21.43
2023-03-05T16:23:25.037Z,23.57
2023-03-05T16:25:53.384Z,19.57
2023-03-05T16:28:22.027Z,22.83
2023-03-05T16:30:55.758Z,23.27
2023-03-05T16:33:24.401Z,22.33
2023-03-05T16:35:57.435Z,25.67
2023-03-05T16:38:27.164Z,22.77
2023-03-05T16:41:07.800Z,19.90
2023-03-05T16:43:37.329Z,21.53
2023-03-05T16:46:07.527Z,21.90
2023-03-05T16:48:37.233Z,22.63
2023-03-05T16:51:05.879Z,20.90
2023-03-05T16:53:34.938Z,20.13
2023-03-05T16:56:04.227Z,24.60
2023-03-05T16:58:33.193Z,20.97
2023-03-05T17:01:02.163Z,25.40
2023-03-05T17:03:32.037Z,25.30
2023-03-05T17:06:00.528Z,20.63
2023-03-05T17:08:29.175Z,26.87
2023-03-05T17:10:57.714Z,26.87
2023-03-05T17:13:26.084Z,24.83
2023-03-05T17:15:56.951Z,25.47
2023-03-05T17:18:26.383Z,24.10
2023-03-05T17:20:56.162Z,25.37
2023-03-05T17:23:24.668Z,26.57
2023-03-05T17:25:53.258Z,23.10
2023-03-05T17:28:21.787Z,23.80
2023-03-05T17:30:50.170Z,25.47
2023-03-05T17:33:18.757Z,28.23
2023-03-05T17:35:47.946Z,24.43
2023-03-05T17:38:18.373Z,28.03
2023-03-05T17:40:46.725Z,28.30
2023-03-05T17:43:15.085Z,25.43
2023-03-05T17:45:43.576Z,31.13
2023-03-05T17:48:12.299Z,22.63
2023-03-05T17:50:40.743Z,24.13
2023-03-05T17:53:09.680Z,28.90
2023-03-05T17:55:40.415Z,25.90
2023-03-05T17:58:09.135Z,23.57
2023-03-05T18:00:37.779Z,26.80
2023-03-05T18:03:06.440Z,25.80
2023-03-05T18:05:35.252Z,25.10
2023-03-05T18:08:03.864Z,30.13
2023-03-05T18:10:32.544Z,31.23
2023-03-05T18:13:02.355Z,26.97
2023-03-05T18:15:31.443Z,26.77
2023-03-05T18:18:00.956Z,25.47
2023-03-05T18:20:31.348Z,29.13
2023-03-05T18:23:00.260Z,27.80
2023-03-05T18:25:31.230Z,25.53
2023-03-05T18:28:00.097Z,26.47
2023-03-05T18:30:30.468Z,25.20
2023-03-05T18:32:59.107Z,30.03
2023-03-05T18:35:29.040Z,25.13
2023-03-05T18:37:57.885Z,26.07
2023-03-05T18:40:27.207Z,27.63
2023-03-05T18:42:55.990Z,26.37
2023-03-05T18:45:24.807Z,27.53
2023-03-05T18:47:56.652Z,26.77
2023-03-05T18:50:26.576Z,24.47
2023-03-05T18:52:55.096Z,26.00
2023-03-05T18:55:24.923Z,28.23
2023-03-05T18:57:53.347Z,26.27
2023-03-05T19:00:22.832Z,28.00
2023-03-05T19:02:51.408Z,28.10
2023-03-05T19:05:21.313Z,30.67
2023-03-05T19:07:50.259Z,29.67
2023-03-05T19:10:18.851Z,31.57
2023-03-05T19:12:51.001Z,29.47
2023-03-05T19:15:19.476Z,33.03
2023-03-05T19:17:49.392Z,34.07
2023-03-05T19:20:18.315Z,29.57
2023-03-05T19:22:50.841Z,30.77
2023-03-05T19:25:19.598Z,27.67
2023-03-05T19:27:48.014Z,29.37
2023-03-05T19:30:17.504Z,30.77
2023-03-05T19:32:47.188Z,32.23
2023-03-05T19:35:16.399Z,33.60
2023-03-05T19:37:45.986Z,35.53
2023-03-05T19:40:16.350Z,33.70
2023-03-05T19:42:44.932Z,38.47
2023-03-05T19:45:13.757Z,34.73
2023-03-05T19:47:42.183Z,30.60
2023-03-05T19:50:11.134Z,37.47
2023-03-05T19:52:39.583Z,37.58
2023-03-05T19:55:08.627Z,31.73
2023-03-05T19:57:38.705Z,37.20
2023-03-05T20:00:07.510Z,36.70
2023-03-05T20:02:35.893Z,29.07
2023-03-05T20:05:04.299Z,34.73
2023-03-05T20:07:32.691Z,33.30
2023-03-05T20:10:01.114Z,36.93
2023-03-05T20:12:30.587Z,40.33
2023-03-05T20:15:00.432Z,37.37
2023-03-05T20:17:28.802Z,35.03
2023-03-05T20:19:59.071Z,37.17
2023-03-05T20:22:27.555Z,38.90
2023-03-05T20:24:55.987Z,41.20
2023-03-05T20:27:24.412Z,37.10
2023-03-05T20:29:53.004Z,37.27
2023-03-05T20:32:22.836Z,39.03
2023-03-05T20:34:52.551Z,38.47
2023-03-05T20:37:20.929Z,41.47
2023-03-05T20:39:51.052Z,37.57
2023-03-05T20:42:19.431Z,40.30
2023-03-05T20:44:47.880Z,37.50
2023-03-05T20:47:30.802Z,39.37
2023-03-05T20:50:01.536Z,47.53
2023-03-05T20:52:29.890Z,39.00
2023-03-05T20:54:58.356Z,39.83
2023-03-05T20:57:26.783Z,39.20
2023-03-05T20:59:55.198Z,44.73
2023-03-05T21:02:23.769Z,48.47
2023-03-05T21:04:52.344Z,39.37
2023-03-05T21:07:22.122Z,43.47
2023-03-05T21:09:50.822Z,37.30
2023-03-05T21:12:19.191Z,44.60
2023-03-05T21:14:47.595Z,48.40
2023-03-05T21:17:17.936Z,44.43
2023-03-05T21:19:46.862Z,42.97
2023-03-05T21:22:15.511Z,42.10
2023-03-05T21:24:55.589Z,40.37
2023-03-05T21:27:23.942Z,39.70
2023-03-05T21:29:52.357Z,43.87
2023-03-05T21:32:20.871Z,43.77
2023-03-05T21:34:49.334Z,44.60
2023-03-05T21:37:17.838Z,47.27
2023-03-05T21:39:47.603Z,45.27
2023-03-05T21:42:16.118Z,44.60
2023-03-05T21:44:44.594Z,46.87
2023-03-05T21:47:12.973Z,42.07
2023-03-05T21:49:41.385Z,41.87
2023-03-05T21:52:11.646Z,42.40
2023-03-05T21:54:40.379Z,44.57
2023-03-05T21:57:10.877Z,52.57
2023-03-05T21:59:41.337Z,46.27
2023-03-05T22:02:12.114Z,40.17
2023-03-05T22:04:40.810Z,40.50
2023-03-05T22:07:09.527Z,45.13
2023-03-05T22:09:37.897Z,46.90
2023-03-05T22:12:10.105Z,45.97
2023-03-05T22:14:40.308Z,46.93
2023-03-05T22:17:09.043Z,45.13
2023-03-05T22:19:37.384Z,44.80
2023-03-05T22:22:06.050Z,42.20
2023-03-05T22:24:34.450Z,44.03
2023-03-05T22:27:03.032Z,42.93
2023-03-05T22:29:31.418Z,43.27
2023-03-05T22:32:01.208Z,48.73
2023-03-05T22:34:30.016Z,40.00
2023-03-05T22:36:58.556Z,41.07
2023-03-05T22:39:26.902Z,44.00
2023-03-05T22:41:55.520Z,38.27
2023-03-05T22:44:25.166Z,44.23
2023-03-05T22:46:53.702Z,42.93
2023-03-05T22:49:23.518Z,40.53
2023-03-05T22:51:52.033Z,41.13
2023-03-05T22:54:20.756Z,43.13
2023-03-05T22:56:49.275Z,40.80
2023-03-05T22:59:17.649Z,43.93
2023-03-05T23:01:46.337Z,42.03
2023-03-05T23:04:28.853Z,42.70
2023-03-05T23:06:58.708Z,41.67
2023-03-05T23:09:27.286Z,39.90
2023-03-05T23:11:55.874Z,44.40
2023-03-05T23:14:24.519Z,42.80
2023-03-05T23:16:53.021Z,40.67
2023-03-05T23:19:21.518Z,41.77
2023-03-05T23:21:50.125Z,42.70
2023-03-05T23:24:20.082Z,43.23
2023-03-05T23:26:48.554Z,39.83
2023-03-05T23:29:16.949Z,41.03
2023-03-05T23:31:45.376Z,39.90
2023-03-05T23:34:13.867Z,35.37
2023-03-05T23:36:42.609Z,42.23
2023-03-05T23:39:10.995Z,38.20
2023-03-05T23:41:40.792Z,39.97
2023-03-05T23:44:09.302Z,42.23
2023-03-05T23:46:38.171Z,34.23
2023-03-05T23:49:06.674Z,39.30
2023-03-05T23:51:35.122Z,39.90
2023-03-05T23:54:03.590Z,38.33
2023-03-05T23:56:32.533Z,42.43
2023-03-05T23:59:02.477Z,47.03
